Pryor, MT (59066)

7:12 PM MST on February 23, 2017 (GMT -0700)
NE of Bridger | | Change Station
Active Advisory: Winter Weather Advisory

Elev 3799 ft 45.33 °N, 108.87 °W | Updated 6 seconds ago

Snow
Snow
24.1 °F
Feels Like 24 °F
N
1.8
Wind Variable Wind from NNW
Gusts 2.5 mph

Today
High -- | Low -- °F
--% Chance of Precip.
Yesterday
High -- | Low -- °F
Precip. -- in
Pressure 30.09 in
Visibility 9.0 miles
Clouds Mostly Cloudy 1600 ft
Mostly Cloudy 2400 ft
Overcast 3500 ft
Windchill 24 °F
Dew Point 24 °F
Humidity 98%
Rainfall 0.00 in
Snow Depth Not available.
7:02 AM 5:53 PM
Waning Crescent, 7% visible
METAR KBIL 240153Z 04009KT 9SM -SN BKN016 BKN024 OVC035 M03/M06 A2998 RMK AO2 SNB14 SLP188 P0000 T10281056
Pressure 30.09 in
Visibility 9.0 miles
Clouds Mostly Cloudy 1600 ft
Mostly Cloudy 2400 ft
Overcast 3500 ft
Windchill 24 °F
Dew Point 24 °F
Humidity 98%
Rainfall 0.00 in
Snow Depth Not available.
7:02 AM 5:53 PM
Waning Crescent, 7% visible
METAR KBIL 240153Z 04009KT 9SM -SN BKN016 BKN024 OVC035 M03/M06 A2998 RMK AO2 SNB14 SLP188 P0000 T10281056

Get Your Daily Forecast Email!

Thanks for signing up!

Be on the lookout for a verification email in your inbox.

You'll start receiving the daily forecast at 8 AM.

×

10-Day Weather Forecast

Almanac

Astronomy

Feb. 23, 2017 Rise Set
Actual Time
Civil Twilight
Nautical Twilight
Astronomical Twilight
Moon
Length of Visible Light
Length of Day
Tomorrow will be .
, % of the Moon is Illuminated

Today's Extremes

State Highs State Lows

Community

WunderPhotos

Upload Photos

1,962,540 photos uploaded!

WunderBlog® & News

Nearby

Air Quality

  Air Quality AQ Index Pollutant
Not available.

Snow Depth

Station Depth Elevation

Earthquake Activity

City Distance Mag. Time & Date
Minimum magnitude displayed is 2.5.

Coastal Water Temperatures

Place Temperature

Stations

Nearby Weather Stations

Station Location Temp. Windchill Dew Point Humidity Wind Precip. Elev Updated Type
                   

Watches & Warnings

Winter Weather Advisory
Issued: 2:14 PM MST Feb. 23, 2017 – National Weather Service

... Winter Weather Advisory remains in effect until noon MST
Friday...

* impacts... poor travel conditions due to slick roads and limited
visibility. Cold and wet weather may be hazardous to Young
livestock. Any wet roadways will freeze up quickly after sunset
tonight.

* Timing... through tomorrow morning.

* Additional snow accumulation... around 2 inches, locally heavier
near the mountains.

Precautionary/preparedness actions...

A Winter Weather Advisory can be issued for a variety of winter
weather conditions such as light snow... blowing snow... sleet...
freezing rain... and extreme wind chills.